sensor_id;sensor_type;location;lat;lon;timestamp;temperature;humidity
5588;DHT22;2816;49.778;9.986;2022-12-07T00:01:17;2.30;99.90
5588;DHT22;2816;49.778;9.986;2022-12-07T00:03:45;2.30;99.90
5588;DHT22;2816;49.778;9.986;2022-12-07T00:06:13;2.20;99.90
5588;DHT22;2816;49.778;9.986;2022-12-07T00:08:41;2.20;99.90
5588;DHT22;2816;49.778;9.986;2022-12-07T00:11:11;2.10;99.90
5588;DHT22;2816;49.778;9.986;2022-12-07T00:13:39;2.20;99.90
5588;DHT22;2816;49.778;9.986;2022-12-07T00:16:08;2.20;99.90
5588;DHT22;2816;49.778;9.986;2022-12-07T00:18:35;2.30;99.90
5588;DHT22;2816;49.778;9.986;2022-12-07T00:21:04;2.20;99.90
5588;DHT22;2816;49.778;9.986;2022-12-07T00:23:32;2.20;99.90
5588;DHT22;2816;49.778;9.986;2022-12-07T00:26:04;2.20;99.90
5588;DHT22;2816;49.778;9.986;2022-12-07T00:28:32;2.20;99.90
5588;DHT22;2816;49.778;9.986;2022-12-07T00:31:03;2.20;99.90
5588;DHT22;2816;49.778;9.986;2022-12-07T00:33:30;2.30;99.90
5588;DHT22;2816;49.778;9.986;2022-12-07T00:35:58;2.30;99.90
5588;DHT22;2816;49.778;9.986;2022-12-07T00:38:28;2.40;99.90
5588;DHT22;2816;49.778;9.986;2022-12-07T00:40:56;2.40;99.90
5588;DHT22;2816;49.778;9.986;2022-12-07T00:43:23;2.40;99.90
5588;DHT22;2816;49.778;9.986;2022-12-07T00:45:52;2.40;99.90
5588;DHT22;2816;49.778;9.986;2022-12-07T00:48:19;2.40;99.90
5588;DHT22;2816;49.778;9.986;2022-12-07T00:50:48;2.40;99.90
5588;DHT22;2816;49.778;9.986;2022-12-07T00:53:16;2.50;99.90
5588;DHT22;2816;49.778;9.986;2022-12-07T00:55:43;2.50;99.90
5588;DHT22;2816;49.778;9.986;2022-12-07T00:58:11;2.40;99.90
5588;DHT22;2816;49.778;9.986;2022-12-07T01:00:40;2.40;99.90
5588;DHT22;2816;49.778;9.986;2022-12-07T01:03:11;2.40;99.90
5588;DHT22;2816;49.778;9.986;2022-12-07T01:05:39;2.40;99.90
5588;DHT22;2816;49.778;9.986;2022-12-07T01:08:06;2.40;99.90
5588;DHT22;2816;49.778;9.986;2022-12-07T01:10:33;2.50;99.90
5588;DHT22;2816;49.778;9.986;2022-12-07T01:13:00;2.50;99.90
5588;DHT22;2816;49.778;9.986;2022-12-07T01:15:27;2.40;99.90
5588;DHT22;2816;49.778;9.986;2022-12-07T01:17:54;2.40;99.90
5588;DHT22;2816;49.778;9.986;2022-12-07T01:20:23;2.30;99.90
5588;DHT22;2816;49.778;9.986;2022-12-07T01:22:50;2.30;99.90
5588;DHT22;2816;49.778;9.986;2022-12-07T01:25:17;2.30;99.90
5588;DHT22;2816;49.778;9.986;2022-12-07T01:27:44;2.30;99.90
5588;DHT22;2816;49.778;9.986;2022-12-07T01:30:12;2.20;99.90
5588;DHT22;2816;49.778;9.986;2022-12-07T01:32:39;2.30;99.90
5588;DHT22;2816;49.778;9.986;2022-12-07T01:35:06;2.20;99.90
5588;DHT22;2816;49.778;9.986;2022-12-07T01:37:36;2.20;99.90
5588;DHT22;2816;49.778;9.986;2022-12-07T01:40:04;2.30;99.90
5588;DHT22;2816;49.778;9.986;2022-12-07T01:42:33;2.30;99.90
5588;DHT22;2816;49.778;9.986;2022-12-07T01:45:34;2.30;99.90
5588;DHT22;2816;49.778;9.986;2022-12-07T01:48:04;2.30;99.90
5588;DHT22;2816;49.778;9.986;2022-12-07T01:50:34;2.30;99.90
5588;DHT22;2816;49.778;9.986;2022-12-07T01:53:05;2.30;99.90
5588;DHT22;2816;49.778;9.986;2022-12-07T01:55:34;2.30;99.90
5588;DHT22;2816;49.778;9.986;2022-12-07T01:58:02;2.20;99.90
5588;DHT22;2816;49.778;9.986;2022-12-07T02:00:30;2.20;99.90
5588;DHT22;2816;49.778;9.986;2022-12-07T02:03:01;2.20;99.90
5588;DHT22;2816;49.778;9.986;2022-12-07T02:05:30;2.20;99.90
5588;DHT22;2816;49.778;9.986;2022-12-07T02:07:58;2.20;99.90
5588;DHT22;2816;49.778;9.986;2022-12-07T02:10:29;2.20;99.90
5588;DHT22;2816;49.778;9.986;2022-12-07T02:12:59;2.20;99.90
5588;DHT22;2816;49.778;9.986;2022-12-07T02:15:38;2.20;99.90
5588;DHT22;2816;49.778;9.986;2022-12-07T02:18:11;2.20;99.90
5588;DHT22;2816;49.778;9.986;2022-12-07T02:20:44;2.20;99.90
5588;DHT22;2816;49.778;9.986;2022-12-07T02:23:34;2.20;99.90
5588;DHT22;2816;49.778;9.986;2022-12-07T02:29:22;2.30;99.90
5588;DHT22;2816;49.778;9.986;2022-12-07T02:31:56;2.30;99.90
5588;DHT22;2816;49.778;9.986;2022-12-07T02:34:33;2.30;99.90
5588;DHT22;2816;49.778;9.986;2022-12-07T02:37:08;2.30;99.90
5588;DHT22;2816;49.778;9.986;2022-12-07T02:39:41;2.30;99.90
5588;DHT22;2816;49.778;9.986;2022-12-07T02:42:13;2.30;99.90
5588;DHT22;2816;49.778;9.986;2022-12-07T02:44:44;2.40;99.90
5588;DHT22;2816;49.778;9.986;2022-12-07T02:47:16;2.40;99.90
5588;DHT22;2816;49.778;9.986;2022-12-07T02:49:44;2.40;99.90
5588;DHT22;2816;49.778;9.986;2022-12-07T02:52:11;2.40;99.90
5588;DHT22;2816;49.778;9.986;2022-12-07T02:54:38;2.40;99.90
5588;DHT22;2816;49.778;9.986;2022-12-07T02:57:20;2.30;99.90
5588;DHT22;2816;49.778;9.986;2022-12-07T03:00:00;2.30;99.90
5588;DHT22;2816;49.778;9.986;2022-12-07T03:02:35;2.30;99.90
5588;DHT22;2816;49.778;9.986;2022-12-07T03:05:24;2.30;99.90
5588;DHT22;2816;49.778;9.986;2022-12-07T03:08:01;2.30;99.90
5588;DHT22;2816;49.778;9.986;2022-12-07T03:10:36;2.30;99.90
5588;DHT22;2816;49.778;9.986;2022-12-07T03:13:11;2.30;99.90
5588;DHT22;2816;49.778;9.986;2022-12-07T03:15:46;2.30;99.90
5588;DHT22;2816;49.778;9.986;2022-12-07T03:18:19;2.30;99.90
5588;DHT22;2816;49.778;9.986;2022-12-07T03:20:48;2.30;99.90
5588;DHT22;2816;49.778;9.986;2022-12-07T03:23:18;2.30;99.90
5588;DHT22;2816;49.778;9.986;2022-12-07T03:25:48;2.40;99.90
5588;DHT22;2816;49.778;9.986;2022-12-07T03:28:19;2.40;99.90
5588;DHT22;2816;49.778;9.986;2022-12-07T03:30:51;2.40;99.90
5588;DHT22;2816;49.778;9.986;2022-12-07T03:33:25;2.40;99.90
5588;DHT22;2816;49.778;9.986;2022-12-07T03:36:00;2.40;99.90
5588;DHT22;2816;49.778;9.986;2022-12-07T03:38:32;2.50;99.90
5588;DHT22;2816;49.778;9.986;2022-12-07T03:41:05;2.60;99.90
5588;DHT22;2816;49.778;9.986;2022-12-07T03:43:34;2.50;99.90
5588;DHT22;2816;49.778;9.986;2022-12-07T03:46:09;2.60;99.90
5588;DHT22;2816;49.778;9.986;2022-12-07T03:48:47;2.60;99.90
5588;DHT22;2816;49.778;9.986;2022-12-07T03:51:20;2.60;99.90
5588;DHT22;2816;49.778;9.986;2022-12-07T03:53:52;2.70;99.90
5588;DHT22;2816;49.778;9.986;2022-12-07T03:56:22;2.60;99.90
5588;DHT22;2816;49.778;9.986;2022-12-07T03:58:50;2.60;99.90
5588;DHT22;2816;49.778;9.986;2022-12-07T04:01:20;2.60;99.90
5588;DHT22;2816;49.778;9.986;2022-12-07T04:03:47;2.60;99.90
5588;DHT22;2816;49.778;9.986;2022-12-07T04:06:14;2.60;99.90
5588;DHT22;2816;49.778;9.986;2022-12-07T04:08:41;2.50;99.90
5588;DHT22;2816;49.778;9.986;2022-12-07T04:11:07;2.50;99.90
5588;DHT22;2816;49.778;9.986;2022-12-07T04:13:34;2.50;99.90
5588;DHT22;2816;49.778;9.986;2022-12-07T04:16:23;2.50;99.90
5588;DHT22;2816;49.778;9.986;2022-12-07T04:18:50;2.40;99.90
5588;DHT22;2816;49.778;9.986;2022-12-07T04:21:17;2.50;99.90
5588;DHT22;2816;49.778;9.986;2022-12-07T04:23:44;2.50;99.90
5588;DHT22;2816;49.778;9.986;2022-12-07T04:26:10;2.50;99.90
5588;DHT22;2816;49.778;9.986;2022-12-07T04:28:37;2.50;99.90
5588;DHT22;2816;49.778;9.986;2022-12-07T04:31:04;2.50;99.90
5588;DHT22;2816;49.778;9.986;2022-12-07T04:33:33;2.60;99.90
5588;DHT22;2816;49.778;9.986;2022-12-07T04:36:00;2.40;99.90
5588;DHT22;2816;49.778;9.986;2022-12-07T04:38:27;2.40;99.90
5588;DHT22;2816;49.778;9.986;2022-12-07T04:40:53;2.50;99.90
5588;DHT22;2816;49.778;9.986;2022-12-07T04:43:20;2.50;99.90
5588;DHT22;2816;49.778;9.986;2022-12-07T04:45:47;2.50;99.90
5588;DHT22;2816;49.778;9.986;2022-12-07T04:48:16;2.50;99.90
5588;DHT22;2816;49.778;9.986;2022-12-07T04:50:44;2.50;99.90
5588;DHT22;2816;49.778;9.986;2022-12-07T04:53:11;2.50;99.90
5588;DHT22;2816;49.778;9.986;2022-12-07T04:55:39;2.50;99.90
5588;DHT22;2816;49.778;9.986;2022-12-07T04:58:06;2.50;99.90
5588;DHT22;2816;49.778;9.986;2022-12-07T05:00:33;2.40;99.90
5588;DHT22;2816;49.778;9.986;2022-12-07T05:02:59;2.40;99.90
5588;DHT22;2816;49.778;9.986;2022-12-07T05:05:26;2.50;99.90
5588;DHT22;2816;49.778;9.986;2022-12-07T05:07:55;2.50;99.90
5588;DHT22;2816;49.778;9.986;2022-12-07T05:10:22;2.40;99.90
5588;DHT22;2816;49.778;9.986;2022-12-07T05:12:49;2.50;99.90
5588;DHT22;2816;49.778;9.986;2022-12-07T05:15:17;2.50;99.90
5588;DHT22;2816;49.778;9.986;2022-12-07T05:17:44;2.50;99.90
5588;DHT22;2816;49.778;9.986;2022-12-07T05:20:12;2.50;99.90
5588;DHT22;2816;49.778;9.986;2022-12-07T05:22:38;2.50;99.90
5588;DHT22;2816;49.778;9.986;2022-12-07T05:25:08;2.50;99.90
5588;DHT22;2816;49.778;9.986;2022-12-07T05:27:36;2.40;99.90
5588;DHT22;2816;49.778;9.986;2022-12-07T05:30:04;2.40;99.90
5588;DHT22;2816;49.778;9.986;2022-12-07T05:32:31;2.50;99.90
5588;DHT22;2816;49.778;9.986;2022-12-07T05:34:58;2.50;99.90
5588;DHT22;2816;49.778;9.986;2022-12-07T05:37:25;2.50;99.90
5588;DHT22;2816;49.778;9.986;2022-12-07T05:39:52;2.60;99.90
5588;DHT22;2816;49.778;9.986;2022-12-07T05:42:20;2.50;99.90
5588;DHT22;2816;49.778;9.986;2022-12-07T05:44:47;2.50;99.90
5588;DHT22;2816;49.778;9.986;2022-12-07T05:47:15;2.50;99.90
5588;DHT22;2816;49.778;9.986;2022-12-07T05:49:42;2.50;99.90
5588;DHT22;2816;49.778;9.986;2022-12-07T05:52:09;2.60;99.90
5588;DHT22;2816;49.778;9.986;2022-12-07T05:54:36;2.60;99.90
5588;DHT22;2816;49.778;9.986;2022-12-07T05:57:03;2.50;99.90
5588;DHT22;2816;49.778;9.986;2022-12-07T05:59:32;2.50;99.90
5588;DHT22;2816;49.778;9.986;2022-12-07T06:02:00;2.50;99.90
5588;DHT22;2816;49.778;9.986;2022-12-07T06:04:29;2.40;99.90
5588;DHT22;2816;49.778;9.986;2022-12-07T06:06:56;2.50;99.90
5588;DHT22;2816;49.778;9.986;2022-12-07T06:09:25;2.50;99.90
5588;DHT22;2816;49.778;9.986;2022-12-07T06:11:52;2.50;99.90
5588;DHT22;2816;49.778;9.986;2022-12-07T06:14:38;2.40;99.90
5588;DHT22;2816;49.778;9.986;2022-12-07T06:17:06;2.40;99.90
5588;DHT22;2816;49.778;9.986;2022-12-07T06:19:33;2.40;99.90
5588;DHT22;2816;49.778;9.986;2022-12-07T06:22:01;2.40;99.90
5588;DHT22;2816;49.778;9.986;2022-12-07T06:24:28;2.40;99.90
5588;DHT22;2816;49.778;9.986;2022-12-07T06:26:55;2.30;99.90
5588;DHT22;2816;49.778;9.986;2022-12-07T06:29:22;2.40;99.90
5588;DHT22;2816;49.778;9.986;2022-12-07T06:31:50;2.40;99.90
5588;DHT22;2816;49.778;9.986;2022-12-07T06:34:19;2.40;99.90
5588;DHT22;2816;49.778;9.986;2022-12-07T06:36:49;2.40;99.90
5588;DHT22;2816;49.778;9.986;2022-12-07T06:39:19;2.40;99.90
5588;DHT22;2816;49.778;9.986;2022-12-07T06:41:47;2.40;99.90
5588;DHT22;2816;49.778;9.986;2022-12-07T06:44:14;2.50;99.90
5588;DHT22;2816;49.778;9.986;2022-12-07T06:46:41;2.50;99.90
5588;DHT22;2816;49.778;9.986;2022-12-07T06:49:09;2.40;99.90
5588;DHT22;2816;49.778;9.986;2022-12-07T06:51:36;2.40;99.90
5588;DHT22;2816;49.778;9.986;2022-12-07T06:54:07;2.50;99.90
5588;DHT22;2816;49.778;9.986;2022-12-07T06:56:34;2.60;99.90
5588;DHT22;2816;49.778;9.986;2022-12-07T06:59:02;2.50;99.90
5588;DHT22;2816;49.778;9.986;2022-12-07T07:01:29;2.50;99.90
5588;DHT22;2816;49.778;9.986;2022-12-07T07:03:56;2.50;99.90
5588;DHT22;2816;49.778;9.986;2022-12-07T07:06:25;2.50;99.90
5588;DHT22;2816;49.778;9.986;2022-12-07T07:08:52;2.50;99.90
5588;DHT22;2816;49.778;9.986;2022-12-07T07:11:19;2.50;99.90
5588;DHT22;2816;49.778;9.986;2022-12-07T07:13:46;2.50;99.90
5588;DHT22;2816;49.778;9.986;2022-12-07T07:16:13;2.60;99.90
5588;DHT22;2816;49.778;9.986;2022-12-07T07:18:40;2.50;99.90
5588;DHT22;2816;49.778;9.986;2022-12-07T07:21:07;2.50;99.90
5588;DHT22;2816;49.778;9.986;2022-12-07T07:23:37;2.50;99.90
5588;DHT22;2816;49.778;9.986;2022-12-07T07:26:04;2.50;99.90
5588;DHT22;2816;49.778;9.986;2022-12-07T07:28:31;2.50;99.90
5588;DHT22;2816;49.778;9.986;2022-12-07T07:30:58;2.60;99.90
5588;DHT22;2816;49.778;9.986;2022-12-07T07:33:25;2.60;99.90
5588;DHT22;2816;49.778;9.986;2022-12-07T07:35:52;2.60;99.90
5588;DHT22;2816;49.778;9.986;2022-12-07T07:38:19;2.60;99.90
5588;DHT22;2816;49.778;9.986;2022-12-07T07:40:47;2.60;99.90
5588;DHT22;2816;49.778;9.986;2022-12-07T07:43:14;2.60;99.90
5588;DHT22;2816;49.778;9.986;2022-12-07T07:45:42;2.60;99.90
5588;DHT22;2816;49.778;9.986;2022-12-07T07:48:09;2.60;99.90
5588;DHT22;2816;49.778;9.986;2022-12-07T07:50:36;2.50;99.90
5588;DHT22;2816;49.778;9.986;2022-12-07T07:53:03;2.60;99.90
5588;DHT22;2816;49.778;9.986;2022-12-07T07:55:30;2.60;99.90
5588;DHT22;2816;49.778;9.986;2022-12-07T07:57:58;2.60;99.90
5588;DHT22;2816;49.778;9.986;2022-12-07T08:00:25;2.60;99.90
5588;DHT22;2816;49.778;9.986;2022-12-07T08:02:52;2.70;99.90
5588;DHT22;2816;49.778;9.986;2022-12-07T08:05:19;2.70;99.90
5588;DHT22;2816;49.778;9.986;2022-12-07T08:07:46;2.70;99.90
5588;DHT22;2816;49.778;9.986;2022-12-07T08:10:13;2.70;99.90
5588;DHT22;2816;49.778;9.986;2022-12-07T08:12:42;2.80;99.90
5588;DHT22;2816;49.778;9.986;2022-12-07T08:15:25;2.80;99.90
5588;DHT22;2816;49.778;9.986;2022-12-07T08:17:52;2.80;99.90
5588;DHT22;2816;49.778;9.986;2022-12-07T08:20:19;2.80;99.90
5588;DHT22;2816;49.778;9.986;2022-12-07T08:22:46;2.80;99.90
5588;DHT22;2816;49.778;9.986;2022-12-07T08:25:13;2.80;99.90
5588;DHT22;2816;49.778;9.986;2022-12-07T08:27:40;2.80;99.90
5588;DHT22;2816;49.778;9.986;2022-12-07T08:30:08;2.80;99.90
5588;DHT22;2816;49.778;9.986;2022-12-07T08:32:36;2.90;99.90
5588;DHT22;2816;49.778;9.986;2022-12-07T08:35:03;2.80;99.90
5588;DHT22;2816;49.778;9.986;2022-12-07T08:37:32;2.90;99.90
5588;DHT22;2816;49.778;9.986;2022-12-07T08:39:59;3.00;99.90
5588;DHT22;2816;49.778;9.986;2022-12-07T08:42:26;2.90;99.90
5588;DHT22;2816;49.778;9.986;2022-12-07T08:44:55;2.90;99.90
5588;DHT22;2816;49.778;9.986;2022-12-07T08:47:23;2.90;99.90
5588;DHT22;2816;49.778;9.986;2022-12-07T08:49:53;3.00;99.90
5588;DHT22;2816;49.778;9.986;2022-12-07T08:52:20;3.00;99.90
5588;DHT22;2816;49.778;9.986;2022-12-07T08:54:48;3.00;99.90
5588;DHT22;2816;49.778;9.986;2022-12-07T08:57:15;2.90;99.90
5588;DHT22;2816;49.778;9.986;2022-12-07T08:59:42;3.00;99.90
5588;DHT22;2816;49.778;9.986;2022-12-07T09:02:09;3.00;99.90
5588;DHT22;2816;49.778;9.986;2022-12-07T09:04:36;3.00;99.90
5588;DHT22;2816;49.778;9.986;2022-12-07T09:07:05;3.00;99.90
5588;DHT22;2816;49.778;9.986;2022-12-07T09:09:32;3.00;99.90
5588;DHT22;2816;49.778;9.986;2022-12-07T09:11:59;3.00;99.90
5588;DHT22;2816;49.778;9.986;2022-12-07T09:14:26;3.10;99.90
5588;DHT22;2816;49.778;9.986;2022-12-07T09:16:53;3.10;99.90
5588;DHT22;2816;49.778;9.986;2022-12-07T09:19:20;3.10;99.90
5588;DHT22;2816;49.778;9.986;2022-12-07T09:21:48;3.10;99.90
5588;DHT22;2816;49.778;9.986;2022-12-07T09:24:16;3.10;99.90
5588;DHT22;2816;49.778;9.986;2022-12-07T09:26:43;3.10;99.90
5588;DHT22;2816;49.778;9.986;2022-12-07T09:29:10;3.10;99.90
5588;DHT22;2816;49.778;9.986;2022-12-07T09:31:37;3.20;99.90
5588;DHT22;2816;49.778;9.986;2022-12-07T09:34:04;3.20;99.90
5588;DHT22;2816;49.778;9.986;2022-12-07T09:36:33;3.20;99.90
5588;DHT22;2816;49.778;9.986;2022-12-07T09:39:00;3.20;99.90
5588;DHT22;2816;49.778;9.986;2022-12-07T09:41:30;3.30;99.90
5588;DHT22;2816;49.778;9.986;2022-12-07T09:44:03;3.30;99.90
5588;DHT22;2816;49.778;9.986;2022-12-07T09:46:35;3.30;99.90
5588;DHT22;2816;49.778;9.986;2022-12-07T09:49:03;3.40;99.90
5588;DHT22;2816;49.778;9.986;2022-12-07T09:51:31;3.40;99.90
5588;DHT22;2816;49.778;9.986;2022-12-07T09:53:59;3.40;99.90
5588;DHT22;2816;49.778;9.986;2022-12-07T09:56:30;3.40;99.90
5588;DHT22;2816;49.778;9.986;2022-12-07T09:59:00;3.40;99.90
5588;DHT22;2816;49.778;9.986;2022-12-07T10:01:29;3.40;99.90
5588;DHT22;2816;49.778;9.986;2022-12-07T10:04:02;3.40;99.90
5588;DHT22;2816;49.778;9.986;2022-12-07T10:06:33;3.40;99.90
5588;DHT22;2816;49.778;9.986;2022-12-07T10:09:00;3.50;99.90
5588;DHT22;2816;49.778;9.986;2022-12-07T10:11:29;3.50;99.90
5588;DHT22;2816;49.778;9.986;2022-12-07T10:14:11;3.50;99.90
5588;DHT22;2816;49.778;9.986;2022-12-07T10:16:40;3.50;99.90
5588;DHT22;2816;49.778;9.986;2022-12-07T10:19:21;3.60;99.90
5588;DHT22;2816;49.778;9.986;2022-12-07T10:22:09;3.60;99.90
5588;DHT22;2816;49.778;9.986;2022-12-07T10:24:36;3.60;99.90
5588;DHT22;2816;49.778;9.986;2022-12-07T10:27:18;3.60;99.90
5588;DHT22;2816;49.778;9.986;2022-12-07T10:29:48;3.60;99.90
5588;DHT22;2816;49.778;9.986;2022-12-07T10:32:29;3.70;99.90
5588;DHT22;2816;49.778;9.986;2022-12-07T10:35:20;3.70;99.90
5588;DHT22;2816;49.778;9.986;2022-12-07T10:37:48;3.60;99.90
5588;DHT22;2816;49.778;9.986;2022-12-07T10:40:31;3.70;99.90
5588;DHT22;2816;49.778;9.986;2022-12-07T10:43:06;3.80;99.90
5588;DHT22;2816;49.778;9.986;2022-12-07T10:49:00;3.70;99.90
5588;DHT22;2816;49.778;9.986;2022-12-07T10:51:32;3.80;99.90
5588;DHT22;2816;49.778;9.986;2022-12-07T10:54:11;3.80;99.90
5588;DHT22;2816;49.778;9.986;2022-12-07T10:57:10;3.80;99.90
5588;DHT22;2816;49.778;9.986;2022-12-07T10:59:56;3.80;99.90
5588;DHT22;2816;49.778;9.986;2022-12-07T11:02:45;3.80;99.90
5588;DHT22;2816;49.778;9.986;2022-12-07T11:05:23;3.90;99.90
5588;DHT22;2816;49.778;9.986;2022-12-07T11:08:00;3.90;99.90
5588;DHT22;2816;49.778;9.986;2022-12-07T11:10:36;3.80;99.90
5588;DHT22;2816;49.778;9.986;2022-12-07T11:13:28;3.80;99.90
5588;DHT22;2816;49.778;9.986;2022-12-07T11:16:19;3.90;99.90
5588;DHT22;2816;49.778;9.986;2022-12-07T11:19:40;3.90;99.90
5588;DHT22;2816;49.778;9.986;2022-12-07T11:22:19;3.90;99.90
5588;DHT22;2816;49.778;9.986;2022-12-07T11:24:53;3.90;99.90
5588;DHT22;2816;49.778;9.986;2022-12-07T11:27:28;4.00;99.90
5588;DHT22;2816;49.778;9.986;2022-12-07T11:30:23;3.90;99.90
5588;DHT22;2816;49.778;9.986;2022-12-07T11:33:11;3.90;99.90
5588;DHT22;2816;49.778;9.986;2022-12-07T11:35:49;3.90;99.90
5588;DHT22;2816;49.778;9.986;2022-12-07T11:38:33;4.00;99.90
5588;DHT22;2816;49.778;9.986;2022-12-07T11:41:04;4.00;99.90
5588;DHT22;2816;49.778;9.986;2022-12-07T11:43:51;4.00;99.90
5588;DHT22;2816;49.778;9.986;2022-12-07T11:46:20;4.00;99.90
5588;DHT22;2816;49.778;9.986;2022-12-07T11:48:54;4.10;99.90
5588;DHT22;2816;49.778;9.986;2022-12-07T11:51:25;4.10;99.90
5588;DHT22;2816;49.778;9.986;2022-12-07T11:53:56;4.20;99.90
5588;DHT22;2816;49.778;9.986;2022-12-07T11:56:26;4.30;99.90
5588;DHT22;2816;49.778;9.986;2022-12-07T11:58:56;4.30;99.90
5588;DHT22;2816;49.778;9.986;2022-12-07T12:01:46;4.30;99.90
5588;DHT22;2816;49.778;9.986;2022-12-07T12:04:26;4.30;99.90
5588;DHT22;2816;49.778;9.986;2022-12-07T12:06:54;4.30;99.90
5588;DHT22;2816;49.778;9.986;2022-12-07T12:09:26;4.30;99.90
5588;DHT22;2816;49.778;9.986;2022-12-07T12:12:21;4.20;99.90
5588;DHT22;2816;49.778;9.986;2022-12-07T12:15:19;4.30;99.90
5588;DHT22;2816;49.778;9.986;2022-12-07T12:18:00;4.30;99.90
5588;DHT22;2816;49.778;9.986;2022-12-07T12:20:35;4.20;99.90
5588;DHT22;2816;49.778;9.986;2022-12-07T12:23:09;4.30;99.90
5588;DHT22;2816;49.778;9.986;2022-12-07T12:25:40;4.30;99.90
5588;DHT22;2816;49.778;9.986;2022-12-07T12:28:20;4.30;99.90
5588;DHT22;2816;49.778;9.986;2022-12-07T12:31:05;4.30;99.90
5588;DHT22;2816;49.778;9.986;2022-12-07T12:33:33;4.30;99.90
5588;DHT22;2816;49.778;9.986;2022-12-07T12:36:21;4.40;99.90
5588;DHT22;2816;49.778;9.986;2022-12-07T12:38:51;4.40;99.90
5588;DHT22;2816;49.778;9.986;2022-12-07T12:41:55;4.40;99.90
5588;DHT22;2816;49.778;9.986;2022-12-07T12:45:11;4.50;99.90
5588;DHT22;2816;49.778;9.986;2022-12-07T12:48:09;4.40;99.90
5588;DHT22;2816;49.778;9.986;2022-12-07T12:51:38;4.40;99.90
5588;DHT22;2816;49.778;9.986;2022-12-07T12:54:12;4.40;99.90
5588;DHT22;2816;49.778;9.986;2022-12-07T12:56:44;4.40;99.90
5588;DHT22;2816;49.778;9.986;2022-12-07T12:59:24;4.50;99.90
5588;DHT22;2816;49.778;9.986;2022-12-07T13:01:54;4.50;99.90
5588;DHT22;2816;49.778;9.986;2022-12-07T13:07:13;4.50;99.90
5588;DHT22;2816;49.778;9.986;2022-12-07T13:10:00;4.40;99.90
5588;DHT22;2816;49.778;9.986;2022-12-07T13:12:28;4.40;99.90
5588;DHT22;2816;49.778;9.986;2022-12-07T13:14:57;4.40;99.90
5588;DHT22;2816;49.778;9.986;2022-12-07T13:17:59;4.20;99.90
5588;DHT22;2816;49.778;9.986;2022-12-07T13:20:53;4.20;99.90
5588;DHT22;2816;49.778;9.986;2022-12-07T13:23:32;4.10;99.90
5588;DHT22;2816;49.778;9.986;2022-12-07T13:26:13;4.00;99.90
5588;DHT22;2816;49.778;9.986;2022-12-07T13:28:43;4.00;99.90
5588;DHT22;2816;49.778;9.986;2022-12-07T13:31:32;3.90;99.90
5588;DHT22;2816;49.778;9.986;2022-12-07T13:34:00;3.90;99.90
5588;DHT22;2816;49.778;9.986;2022-12-07T13:36:29;3.80;99.90
5588;DHT22;2816;49.778;9.986;2022-12-07T13:39:15;3.80;99.90
5588;DHT22;2816;49.778;9.986;2022-12-07T13:41:43;3.80;99.90
5588;DHT22;2816;49.778;9.986;2022-12-07T13:44:12;3.80;99.90
5588;DHT22;2816;49.778;9.986;2022-12-07T13:46:47;3.80;99.90
5588;DHT22;2816;49.778;9.986;2022-12-07T13:49:19;3.80;99.90
5588;DHT22;2816;49.778;9.986;2022-12-07T13:51:47;3.80;99.90
5588;DHT22;2816;49.778;9.986;2022-12-07T13:54:15;3.70;99.90
5588;DHT22;2816;49.778;9.986;2022-12-07T13:56:43;3.80;99.90
5588;DHT22;2816;49.778;9.986;2022-12-07T13:59:14;3.90;99.90
5588;DHT22;2816;49.778;9.986;2022-12-07T14:01:45;3.90;99.90
5588;DHT22;2816;49.778;9.986;2022-12-07T14:04:20;3.90;99.90
5588;DHT22;2816;49.778;9.986;2022-12-07T14:06:54;4.00;99.90
5588;DHT22;2816;49.778;9.986;2022-12-07T14:09:24;4.10;99.90
5588;DHT22;2816;49.778;9.986;2022-12-07T14:11:53;4.10;99.90
5588;DHT22;2816;49.778;9.986;2022-12-07T14:14:22;4.10;99.90
5588;DHT22;2816;49.778;9.986;2022-12-07T14:16:59;4.20;99.90
5588;DHT22;2816;49.778;9.986;2022-12-07T14:19:51;4.20;99.90
5588;DHT22;2816;49.778;9.986;2022-12-07T14:22:26;4.20;99.90
5588;DHT22;2816;49.778;9.986;2022-12-07T14:28:05;4.20;99.90
5588;DHT22;2816;49.778;9.986;2022-12-07T14:30:34;4.10;99.90
5588;DHT22;2816;49.778;9.986;2022-12-07T14:33:04;4.10;99.90
5588;DHT22;2816;49.778;9.986;2022-12-07T14:35:32;4.10;99.90
5588;DHT22;2816;49.778;9.986;2022-12-07T14:37:59;4.10;99.90
5588;DHT22;2816;49.778;9.986;2022-12-07T14:40:28;4.10;99.90
5588;DHT22;2816;49.778;9.986;2022-12-07T14:42:58;4.10;99.90
5588;DHT22;2816;49.778;9.986;2022-12-07T14:45:29;4.00;99.90
5588;DHT22;2816;49.778;9.986;2022-12-07T14:47:56;3.90;99.90
5588;DHT22;2816;49.778;9.986;2022-12-07T14:50:23;4.00;99.90
5588;DHT22;2816;49.778;9.986;2022-12-07T14:52:51;4.00;99.90
5588;DHT22;2816;49.778;9.986;2022-12-07T14:55:23;3.90;99.90
5588;DHT22;2816;49.778;9.986;2022-12-07T14:57:51;4.00;99.90
5588;DHT22;2816;49.778;9.986;2022-12-07T15:00:20;3.90;99.90
5588;DHT22;2816;49.778;9.986;2022-12-07T15:02:49;3.90;99.90
5588;DHT22;2816;49.778;9.986;2022-12-07T15:05:17;3.80;99.90
5588;DHT22;2816;49.778;9.986;2022-12-07T15:07:45;3.80;99.90
5588;DHT22;2816;49.778;9.986;2022-12-07T15:10:16;3.80;99.90
5588;DHT22;2816;49.778;9.986;2022-12-07T15:12:44;3.80;99.90
5588;DHT22;2816;49.778;9.986;2022-12-07T15:15:11;3.80;99.90
5588;DHT22;2816;49.778;9.986;2022-12-07T15:17:38;3.70;99.90
5588;DHT22;2816;49.778;9.986;2022-12-07T15:20:09;3.60;99.90
5588;DHT22;2816;49.778;9.986;2022-12-07T15:22:37;3.60;99.90
5588;DHT22;2816;49.778;9.986;2022-12-07T15:25:05;3.60;99.90
5588;DHT22;2816;49.778;9.986;2022-12-07T15:27:33;3.60;99.90
5588;DHT22;2816;49.778;9.986;2022-12-07T15:30:00;3.50;99.90
5588;DHT22;2816;49.778;9.986;2022-12-07T15:32:27;3.50;99.90
5588;DHT22;2816;49.778;9.986;2022-12-07T15:34:54;3.40;99.90
5588;DHT22;2816;49.778;9.986;2022-12-07T15:37:22;3.40;99.90
5588;DHT22;2816;49.778;9.986;2022-12-07T15:39:49;3.40;99.90
5588;DHT22;2816;49.778;9.986;2022-12-07T15:42:16;3.40;99.90
5588;DHT22;2816;49.778;9.986;2022-12-07T15:44:43;3.40;99.90
5588;DHT22;2816;49.778;9.986;2022-12-07T15:47:27;3.40;99.90
5588;DHT22;2816;49.778;9.986;2022-12-07T15:49:54;3.40;99.90
5588;DHT22;2816;49.778;9.986;2022-12-07T15:52:23;3.40;99.90
5588;DHT22;2816;49.778;9.986;2022-12-07T15:54:50;3.40;99.90
5588;DHT22;2816;49.778;9.986;2022-12-07T15:57:16;3.40;99.90
5588;DHT22;2816;49.778;9.986;2022-12-07T15:59:43;3.30;99.90
5588;DHT22;2816;49.778;9.986;2022-12-07T16:02:10;3.40;99.90
5588;DHT22;2816;49.778;9.986;2022-12-07T16:04:37;3.40;99.90
5588;DHT22;2816;49.778;9.986;2022-12-07T16:07:05;3.40;99.90
5588;DHT22;2816;49.778;9.986;2022-12-07T16:09:33;3.40;99.90
5588;DHT22;2816;49.778;9.986;2022-12-07T16:12:00;3.40;99.90
5588;DHT22;2816;49.778;9.986;2022-12-07T16:14:27;3.40;99.90
5588;DHT22;2816;49.778;9.986;2022-12-07T16:16:54;3.40;99.90
5588;DHT22;2816;49.778;9.986;2022-12-07T16:19:21;3.40;99.90
5588;DHT22;2816;49.778;9.986;2022-12-07T16:21:48;3.30;99.90
5588;DHT22;2816;49.778;9.986;2022-12-07T16:24:15;3.30;99.90
5588;DHT22;2816;49.778;9.986;2022-12-07T16:26:43;3.20;99.90
5588;DHT22;2816;49.778;9.986;2022-12-07T16:29:11;3.00;99.90
5588;DHT22;2816;49.778;9.986;2022-12-07T16:31:38;2.90;99.90
5588;DHT22;2816;49.778;9.986;2022-12-07T16:34:06;2.80;99.90
5588;DHT22;2816;49.778;9.986;2022-12-07T16:36:33;2.70;99.90
5588;DHT22;2816;49.778;9.986;2022-12-07T16:39:01;2.70;99.90
5588;DHT22;2816;49.778;9.986;2022-12-07T16:41:28;2.60;99.90
5588;DHT22;2816;49.778;9.986;2022-12-07T16:43:57;2.60;99.90
5588;DHT22;2816;49.778;9.986;2022-12-07T16:46:28;2.70;99.90
5588;DHT22;2816;49.778;9.986;2022-12-07T16:48:55;2.70;99.90
5588;DHT22;2816;49.778;9.986;2022-12-07T16:51:22;2.70;99.90
5588;DHT22;2816;49.778;9.986;2022-12-07T16:53:52;2.70;99.90
5588;DHT22;2816;49.778;9.986;2022-12-07T16:56:19;2.70;99.90